sensor_id;sensor_type;location;lat;lon;timestamp;temperature;humidity
23669;DHT22;12011;47.422;15.018;2022-08-19T00:00:55;14.20;99.90
23669;DHT22;12011;47.422;15.018;2022-08-19T00:03:25;14.30;99.90
23669;DHT22;12011;47.422;15.018;2022-08-19T00:05:58;14.20;99.90
23669;DHT22;12011;47.422;15.018;2022-08-19T00:08:28;14.20;99.90
23669;DHT22;12011;47.422;15.018;2022-08-19T00:10:58;14.20;99.90
23669;DHT22;12011;47.422;15.018;2022-08-19T00:13:28;14.10;99.90
23669;DHT22;12011;47.422;15.018;2022-08-19T00:15:57;13.80;99.90
23669;DHT22;12011;47.422;15.018;2022-08-19T00:18:27;13.80;99.90
23669;DHT22;12011;47.422;15.018;2022-08-19T00:21:00;13.80;99.90
23669;DHT22;12011;47.422;15.018;2022-08-19T00:23:33;13.70;99.90
23669;DHT22;12011;47.422;15.018;2022-08-19T00:26:03;13.70;99.90
23669;DHT22;12011;47.422;15.018;2022-08-19T00:28:34;13.60;99.90
23669;DHT22;12011;47.422;15.018;2022-08-19T00:31:04;13.50;99.90
23669;DHT22;12011;47.422;15.018;2022-08-19T00:33:35;13.40;99.90
23669;DHT22;12011;47.422;15.018;2022-08-19T00:36:08;13.40;99.90
23669;DHT22;12011;47.422;15.018;2022-08-19T00:38:39;13.40;99.90
23669;DHT22;12011;47.422;15.018;2022-08-19T00:41:12;13.40;99.90
23669;DHT22;12011;47.422;15.018;2022-08-19T00:43:57;13.30;99.90
23669;DHT22;12011;47.422;15.018;2022-08-19T00:46:28;13.10;99.90
23669;DHT22;12011;47.422;15.018;2022-08-19T00:48:59;13.20;99.90
23669;DHT22;12011;47.422;15.018;2022-08-19T00:51:32;13.30;99.90
23669;DHT22;12011;47.422;15.018;2022-08-19T00:54:03;13.30;99.90
23669;DHT22;12011;47.422;15.018;2022-08-19T00:56:33;13.40;99.90
23669;DHT22;12011;47.422;15.018;2022-08-19T00:59:05;13.50;99.90
23669;DHT22;12011;47.422;15.018;2022-08-19T01:01:35;13.50;99.90
23669;DHT22;12011;47.422;15.018;2022-08-19T01:04:05;13.60;99.90
23669;DHT22;12011;47.422;15.018;2022-08-19T01:06:39;13.70;99.90
23669;DHT22;12011;47.422;15.018;2022-08-19T01:09:09;13.80;99.90
23669;DHT22;12011;47.422;15.018;2022-08-19T01:11:41;13.90;99.90
23669;DHT22;12011;47.422;15.018;2022-08-19T01:14:14;14.00;99.90
23669;DHT22;12011;47.422;15.018;2022-08-19T01:16:46;14.00;99.90
23669;DHT22;12011;47.422;15.018;2022-08-19T01:19:22;14.20;99.90
23669;DHT22;12011;47.422;15.018;2022-08-19T01:22:03;14.30;99.90
23669;DHT22;12011;47.422;15.018;2022-08-19T01:24:38;14.40;99.90
23669;DHT22;12011;47.422;15.018;2022-08-19T01:27:08;14.50;99.90
23669;DHT22;12011;47.422;15.018;2022-08-19T01:29:39;14.60;99.90
23669;DHT22;12011;47.422;15.018;2022-08-19T01:32:13;14.50;99.90
23669;DHT22;12011;47.422;15.018;2022-08-19T01:34:45;14.60;99.90
23669;DHT22;12011;47.422;15.018;2022-08-19T01:37:15;14.60;99.90
23669;DHT22;12011;47.422;15.018;2022-08-19T01:39:47;14.50;99.90
23669;DHT22;12011;47.422;15.018;2022-08-19T01:42:17;14.60;99.90
23669;DHT22;12011;47.422;15.018;2022-08-19T01:44:48;14.60;99.90
23669;DHT22;12011;47.422;15.018;2022-08-19T01:47:17;14.60;99.90
23669;DHT22;12011;47.422;15.018;2022-08-19T01:49:47;14.60;99.90
23669;DHT22;12011;47.422;15.018;2022-08-19T01:52:16;14.70;99.90
23669;DHT22;12011;47.422;15.018;2022-08-19T01:54:48;14.80;99.90
23669;DHT22;12011;47.422;15.018;2022-08-19T01:57:18;14.80;99.90
23669;DHT22;12011;47.422;15.018;2022-08-19T01:59:47;14.80;99.90
23669;DHT22;12011;47.422;15.018;2022-08-19T02:02:17;14.80;99.90
23669;DHT22;12011;47.422;15.018;2022-08-19T02:04:47;14.80;99.90
23669;DHT22;12011;47.422;15.018;2022-08-19T02:07:20;14.80;99.90
23669;DHT22;12011;47.422;15.018;2022-08-19T02:09:52;14.80;99.90
23669;DHT22;12011;47.422;15.018;2022-08-19T02:12:22;14.80;99.90
23669;DHT22;12011;47.422;15.018;2022-08-19T02:14:51;14.90;99.90
23669;DHT22;12011;47.422;15.018;2022-08-19T02:17:21;14.90;99.90
23669;DHT22;12011;47.422;15.018;2022-08-19T02:19:50;14.90;99.90
23669;DHT22;12011;47.422;15.018;2022-08-19T02:22:20;14.90;99.90
23669;DHT22;12011;47.422;15.018;2022-08-19T02:24:55;14.90;99.90
23669;DHT22;12011;47.422;15.018;2022-08-19T02:27:24;14.90;99.90
23669;DHT22;12011;47.422;15.018;2022-08-19T02:29:56;14.90;99.90
23669;DHT22;12011;47.422;15.018;2022-08-19T02:32:26;14.90;99.90
23669;DHT22;12011;47.422;15.018;2022-08-19T02:34:56;14.80;99.90
23669;DHT22;12011;47.422;15.018;2022-08-19T02:37:26;14.80;99.90
23669;DHT22;12011;47.422;15.018;2022-08-19T02:40:11;14.80;99.90
23669;DHT22;12011;47.422;15.018;2022-08-19T02:42:41;14.70;99.90
23669;DHT22;12011;47.422;15.018;2022-08-19T02:45:12;14.70;99.90
23669;DHT22;12011;47.422;15.018;2022-08-19T02:47:42;14.70;99.90
23669;DHT22;12011;47.422;15.018;2022-08-19T02:50:12;14.60;99.90
23669;DHT22;12011;47.422;15.018;2022-08-19T02:52:41;14.60;99.90
23669;DHT22;12011;47.422;15.018;2022-08-19T02:55:14;14.60;99.90
23669;DHT22;12011;47.422;15.018;2022-08-19T02:57:43;14.60;99.90
23669;DHT22;12011;47.422;15.018;2022-08-19T03:00:13;14.60;99.90
23669;DHT22;12011;47.422;15.018;2022-08-19T03:02:43;14.60;99.90
23669;DHT22;12011;47.422;15.018;2022-08-19T03:05:14;14.70;99.90
23669;DHT22;12011;47.422;15.018;2022-08-19T03:07:44;14.70;99.90
23669;DHT22;12011;47.422;15.018;2022-08-19T03:10:16;14.70;99.90
23669;DHT22;12011;47.422;15.018;2022-08-19T03:12:46;14.80;99.90
23669;DHT22;12011;47.422;15.018;2022-08-19T03:15:16;14.70;99.90
23669;DHT22;12011;47.422;15.018;2022-08-19T03:17:45;14.70;99.90
23669;DHT22;12011;47.422;15.018;2022-08-19T03:20:15;14.70;99.90
23669;DHT22;12011;47.422;15.018;2022-08-19T03:22:45;14.70;99.90
23669;DHT22;12011;47.422;15.018;2022-08-19T03:25:17;14.60;99.90
23669;DHT22;12011;47.422;15.018;2022-08-19T03:27:47;14.60;99.90
23669;DHT22;12011;47.422;15.018;2022-08-19T03:30:17;14.60;99.90
23669;DHT22;12011;47.422;15.018;2022-08-19T03:32:46;14.50;99.90
23669;DHT22;12011;47.422;15.018;2022-08-19T03:35:16;14.50;99.90
23669;DHT22;12011;47.422;15.018;2022-08-19T03:37:46;14.50;99.90
23669;DHT22;12011;47.422;15.018;2022-08-19T03:40:18;14.50;99.90
23669;DHT22;12011;47.422;15.018;2022-08-19T03:42:48;14.60;99.90
23669;DHT22;12011;47.422;15.018;2022-08-19T03:45:17;14.60;99.90
23669;DHT22;12011;47.422;15.018;2022-08-19T03:47:47;14.50;99.90
23669;DHT22;12011;47.422;15.018;2022-08-19T03:50:17;14.50;99.90
23669;DHT22;12011;47.422;15.018;2022-08-19T03:52:48;14.60;99.90
23669;DHT22;12011;47.422;15.018;2022-08-19T03:55:21;14.60;99.90
23669;DHT22;12011;47.422;15.018;2022-08-19T03:57:51;14.70;99.90
23669;DHT22;12011;47.422;15.018;2022-08-19T04:00:21;14.70;99.90
23669;DHT22;12011;47.422;15.018;2022-08-19T04:02:50;14.90;99.90
23669;DHT22;12011;47.422;15.018;2022-08-19T04:05:21;15.20;99.90
23669;DHT22;12011;47.422;15.018;2022-08-19T04:07:50;15.40;99.90
23669;DHT22;12011;47.422;15.018;2022-08-19T04:10:23;15.50;99.90
23669;DHT22;12011;47.422;15.018;2022-08-19T04:12:53;15.60;99.90
23669;DHT22;12011;47.422;15.018;2022-08-19T04:15:23;15.60;99.90
23669;DHT22;12011;47.422;15.018;2022-08-19T04:17:54;15.60;99.90
23669;DHT22;12011;47.422;15.018;2022-08-19T04:20:24;15.70;99.90
23669;DHT22;12011;47.422;15.018;2022-08-19T04:22:54;15.70;99.90
23669;DHT22;12011;47.422;15.018;2022-08-19T04:25:26;15.60;99.90
23669;DHT22;12011;47.422;15.018;2022-08-19T04:27:55;15.60;99.90
23669;DHT22;12011;47.422;15.018;2022-08-19T04:30:25;15.60;99.90
23669;DHT22;12011;47.422;15.018;2022-08-19T04:32:54;15.70;99.90
23669;DHT22;12011;47.422;15.018;2022-08-19T04:35:24;15.70;99.90
23669;DHT22;12011;47.422;15.018;2022-08-19T04:37:53;15.70;99.90
23669;DHT22;12011;47.422;15.018;2022-08-19T04:40:25;15.70;99.90
23669;DHT22;12011;47.422;15.018;2022-08-19T04:43:07;15.70;99.90
23669;DHT22;12011;47.422;15.018;2022-08-19T04:45:42;15.60;99.90
23669;DHT22;12011;47.422;15.018;2022-08-19T04:48:13;15.60;99.90
23669;DHT22;12011;47.422;15.018;2022-08-19T04:50:44;15.60;99.90
23669;DHT22;12011;47.422;15.018;2022-08-19T04:53:14;15.60;99.90
23669;DHT22;12011;47.422;15.018;2022-08-19T04:55:46;15.70;99.90
23669;DHT22;12011;47.422;15.018;2022-08-19T04:58:17;15.70;99.90
23669;DHT22;12011;47.422;15.018;2022-08-19T05:00:47;15.70;99.90
23669;DHT22;12011;47.422;15.018;2022-08-19T05:03:16;15.70;99.90
23669;DHT22;12011;47.422;15.018;2022-08-19T05:05:48;15.70;99.90
23669;DHT22;12011;47.422;15.018;2022-08-19T05:08:20;15.80;99.90
23669;DHT22;12011;47.422;15.018;2022-08-19T05:10:52;15.80;99.90
23669;DHT22;12011;47.422;15.018;2022-08-19T05:13:23;15.80;99.90
23669;DHT22;12011;47.422;15.018;2022-08-19T05:15:57;15.80;99.90
23669;DHT22;12011;47.422;15.018;2022-08-19T05:18:27;15.90;99.90
23669;DHT22;12011;47.422;15.018;2022-08-19T05:21:11;15.90;99.90
23669;DHT22;12011;47.422;15.018;2022-08-19T05:23:54;16.00;99.90
23669;DHT22;12011;47.422;15.018;2022-08-19T05:26:27;16.00;99.90
23669;DHT22;12011;47.422;15.018;2022-08-19T05:28:57;16.00;99.90
23669;DHT22;12011;47.422;15.018;2022-08-19T05:31:26;16.10;99.90
23669;DHT22;12011;47.422;15.018;2022-08-19T05:33:56;16.20;99.90
23669;DHT22;12011;47.422;15.018;2022-08-19T05:36:27;16.40;99.90
23669;DHT22;12011;47.422;15.018;2022-08-19T05:38:58;16.50;99.90
23669;DHT22;12011;47.422;15.018;2022-08-19T05:41:30;16.70;99.90
23669;DHT22;12011;47.422;15.018;2022-08-19T05:44:03;16.80;99.90
23669;DHT22;12011;47.422;15.018;2022-08-19T05:46:35;16.90;99.90
23669;DHT22;12011;47.422;15.018;2022-08-19T05:49:07;17.00;99.90
23669;DHT22;12011;47.422;15.018;2022-08-19T05:51:37;17.10;99.90
23669;DHT22;12011;47.422;15.018;2022-08-19T05:54:07;17.30;99.90
23669;DHT22;12011;47.422;15.018;2022-08-19T05:56:42;17.80;99.90
23669;DHT22;12011;47.422;15.018;2022-08-19T05:59:14;18.10;99.90
23669;DHT22;12011;47.422;15.018;2022-08-19T06:01:51;18.20;99.90
23669;DHT22;12011;47.422;15.018;2022-08-19T06:04:24;17.50;99.90
23669;DHT22;12011;47.422;15.018;2022-08-19T06:07:01;18.30;99.90
23669;DHT22;12011;47.422;15.018;2022-08-19T06:09:34;18.30;99.90
23669;DHT22;12011;47.422;15.018;2022-08-19T06:12:13;18.60;99.90
23669;DHT22;12011;47.422;15.018;2022-08-19T06:14:43;19.00;99.90
23669;DHT22;12011;47.422;15.018;2022-08-19T06:17:12;19.20;99.90
23669;DHT22;12011;47.422;15.018;2022-08-19T06:19:42;19.20;99.90
23669;DHT22;12011;47.422;15.018;2022-08-19T06:22:11;19.10;99.90
23669;DHT22;12011;47.422;15.018;2022-08-19T06:24:41;18.90;99.90
23669;DHT22;12011;47.422;15.018;2022-08-19T06:27:13;18.70;99.90
23669;DHT22;12011;47.422;15.018;2022-08-19T06:29:43;18.50;99.90
23669;DHT22;12011;47.422;15.018;2022-08-19T06:32:17;18.30;99.90
23669;DHT22;12011;47.422;15.018;2022-08-19T06:34:47;18.20;99.90
23669;DHT22;12011;47.422;15.018;2022-08-19T06:37:17;18.20;99.90
23669;DHT22;12011;47.422;15.018;2022-08-19T06:39:48;18.40;99.90
23669;DHT22;12011;47.422;15.018;2022-08-19T06:42:21;18.70;99.90
23669;DHT22;12011;47.422;15.018;2022-08-19T06:44:51;18.80;99.90
23669;DHT22;12011;47.422;15.018;2022-08-19T06:47:21;19.10;99.90
23669;DHT22;12011;47.422;15.018;2022-08-19T06:49:53;19.50;99.90
23669;DHT22;12011;47.422;15.018;2022-08-19T06:52:25;19.80;99.90
23669;DHT22;12011;47.422;15.018;2022-08-19T06:54:54;19.90;99.90
23669;DHT22;12011;47.422;15.018;2022-08-19T06:57:27;19.90;99.90
23669;DHT22;12011;47.422;15.018;2022-08-19T06:59:58;19.80;99.90
23669;DHT22;12011;47.422;15.018;2022-08-19T07:02:29;19.70;99.90
23669;DHT22;12011;47.422;15.018;2022-08-19T07:04:58;19.50;99.90
23669;DHT22;12011;47.422;15.018;2022-08-19T07:07:31;19.70;99.90
23669;DHT22;12011;47.422;15.018;2022-08-19T07:10:02;19.90;99.90
23669;DHT22;12011;47.422;15.018;2022-08-19T07:12:35;20.20;99.90
23669;DHT22;12011;47.422;15.018;2022-08-19T07:15:09;20.20;99.90
23669;DHT22;12011;47.422;15.018;2022-08-19T07:17:42;20.00;99.90
23669;DHT22;12011;47.422;15.018;2022-08-19T07:20:12;19.70;99.90
23669;DHT22;12011;47.422;15.018;2022-08-19T07:22:41;19.60;99.90
23669;DHT22;12011;47.422;15.018;2022-08-19T07:25:11;19.60;99.90
23669;DHT22;12011;47.422;15.018;2022-08-19T07:27:45;19.50;99.90
23669;DHT22;12011;47.422;15.018;2022-08-19T07:30:17;19.40;99.90
23669;DHT22;12011;47.422;15.018;2022-08-19T07:32:48;19.20;99.90
23669;DHT22;12011;47.422;15.018;2022-08-19T07:35:19;19.10;99.90
23669;DHT22;12011;47.422;15.018;2022-08-19T07:37:49;19.10;99.90
23669;DHT22;12011;47.422;15.018;2022-08-19T07:40:19;19.10;99.90
23669;DHT22;12011;47.422;15.018;2022-08-19T07:42:52;19.10;99.90
23669;DHT22;12011;47.422;15.018;2022-08-19T07:45:22;19.20;99.90
23669;DHT22;12011;47.422;15.018;2022-08-19T07:47:51;19.40;99.90
23669;DHT22;12011;47.422;15.018;2022-08-19T07:50:21;19.40;99.90
23669;DHT22;12011;47.422;15.018;2022-08-19T07:52:51;19.50;99.90
23669;DHT22;12011;47.422;15.018;2022-08-19T07:55:24;19.70;99.90
23669;DHT22;12011;47.422;15.018;2022-08-19T07:57:57;19.80;99.90
23669;DHT22;12011;47.422;15.018;2022-08-19T08:00:27;19.80;99.90
23669;DHT22;12011;47.422;15.018;2022-08-19T08:02:57;19.60;99.90
23669;DHT22;12011;47.422;15.018;2022-08-19T08:05:27;19.70;99.90
23669;DHT22;12011;47.422;15.018;2022-08-19T08:08:08;19.80;99.90
23669;DHT22;12011;47.422;15.018;2022-08-19T08:10:50;19.90;99.90
23669;DHT22;12011;47.422;15.018;2022-08-19T08:13:23;20.00;99.90
23669;DHT22;12011;47.422;15.018;2022-08-19T08:15:53;20.20;99.90
23669;DHT22;12011;47.422;15.018;2022-08-19T08:18:22;20.20;99.90
23669;DHT22;12011;47.422;15.018;2022-08-19T08:20:52;20.10;99.90
23669;DHT22;12011;47.422;15.018;2022-08-19T08:23:22;20.20;99.90
23669;DHT22;12011;47.422;15.018;2022-08-19T08:25:53;20.00;99.90
23669;DHT22;12011;47.422;15.018;2022-08-19T08:28:27;20.20;99.90
23669;DHT22;12011;47.422;15.018;2022-08-19T08:30:58;20.10;99.90
23669;DHT22;12011;47.422;15.018;2022-08-19T08:33:29;20.20;99.90
23669;DHT22;12011;47.422;15.018;2022-08-19T08:35:59;20.20;99.90
23669;DHT22;12011;47.422;15.018;2022-08-19T08:38:28;19.90;99.90
23669;DHT22;12011;47.422;15.018;2022-08-19T08:41:09;20.40;99.90
23669;DHT22;12011;47.422;15.018;2022-08-19T08:43:50;21.30;99.90
23669;DHT22;12011;47.422;15.018;2022-08-19T08:46:27;23.00;99.90
23669;DHT22;12011;47.422;15.018;2022-08-19T08:49:06;23.00;92.70
23669;DHT22;12011;47.422;15.018;2022-08-19T08:51:54;22.30;97.70
23669;DHT22;12011;47.422;15.018;2022-08-19T08:54:35;21.70;99.90
23669;DHT22;12011;47.422;15.018;2022-08-19T08:57:14;21.80;99.90
23669;DHT22;12011;47.422;15.018;2022-08-19T08:59:53;21.70;99.90
23669;DHT22;12011;47.422;15.018;2022-08-19T09:02:24;21.50;99.90
23669;DHT22;12011;47.422;15.018;2022-08-19T09:04:54;22.40;99.00
23669;DHT22;12011;47.422;15.018;2022-08-19T09:07:40;23.10;90.00
23669;DHT22;12011;47.422;15.018;2022-08-19T09:10:24;23.70;98.00
23669;DHT22;12011;47.422;15.018;2022-08-19T09:13:10;23.90;88.60
23669;DHT22;12011;47.422;15.018;2022-08-19T09:15:52;24.10;82.60
23669;DHT22;12011;47.422;15.018;2022-08-19T09:18:25;24.10;86.70
23669;DHT22;12011;47.422;15.018;2022-08-19T09:20:54;24.40;83.10
23669;DHT22;12011;47.422;15.018;2022-08-19T09:23:24;24.60;70.60
23669;DHT22;12011;47.422;15.018;2022-08-19T09:25:54;24.90;75.50
23669;DHT22;12011;47.422;15.018;2022-08-19T09:28:24;26.40;74.20
23669;DHT22;12011;47.422;15.018;2022-08-19T09:30:57;26.10;67.00
23669;DHT22;12011;47.422;15.018;2022-08-19T09:33:27;26.20;68.30
23669;DHT22;12011;47.422;15.018;2022-08-19T09:36:05;27.10;73.20
23669;DHT22;12011;47.422;15.018;2022-08-19T09:38:37;28.20;69.90
23669;DHT22;12011;47.422;15.018;2022-08-19T09:41:09;29.30;65.80
23669;DHT22;12011;47.422;15.018;2022-08-19T09:43:44;29.80;64.00
23669;DHT22;12011;47.422;15.018;2022-08-19T09:46:17;29.90;59.50
23669;DHT22;12011;47.422;15.018;2022-08-19T09:48:48;29.10;54.50
23669;DHT22;12011;47.422;15.018;2022-08-19T09:51:21;28.30;60.50
23669;DHT22;12011;47.422;15.018;2022-08-19T09:53:54;28.30;58.60
23669;DHT22;12011;47.422;15.018;2022-08-19T09:56:28;27.40;62.60
23669;DHT22;12011;47.422;15.018;2022-08-19T09:58:59;26.70;64.50
23669;DHT22;12011;47.422;15.018;2022-08-19T10:01:32;26.20;68.50
23669;DHT22;12011;47.422;15.018;2022-08-19T10:04:02;25.60;66.80
23669;DHT22;12011;47.422;15.018;2022-08-19T10:06:36;24.70;66.50
23669;DHT22;12011;47.422;15.018;2022-08-19T10:09:09;24.60;69.80
23669;DHT22;12011;47.422;15.018;2022-08-19T10:11:41;24.70;74.10
23669;DHT22;12011;47.422;15.018;2022-08-19T10:14:16;24.90;72.80
23669;DHT22;12011;47.422;15.018;2022-08-19T10:16:51;24.90;71.50
23669;DHT22;12011;47.422;15.018;2022-08-19T10:19:20;25.00;68.40
23669;DHT22;12011;47.422;15.018;2022-08-19T10:21:50;25.30;71.70
23669;DHT22;12011;47.422;15.018;2022-08-19T10:24:20;25.70;70.00
23669;DHT22;12011;47.422;15.018;2022-08-19T10:26:50;26.40;75.70
23669;DHT22;12011;47.422;15.018;2022-08-19T10:29:20;27.10;65.90
23669;DHT22;12011;47.422;15.018;2022-08-19T10:31:52;27.10;65.00
23669;DHT22;12011;47.422;15.018;2022-08-19T10:34:22;26.80;66.00
23669;DHT22;12011;47.422;15.018;2022-08-19T10:36:51;26.20;66.80
23669;DHT22;12011;47.422;15.018;2022-08-19T10:39:22;26.00;71.00
23669;DHT22;12011;47.422;15.018;2022-08-19T10:41:52;25.80;65.70
23669;DHT22;12011;47.422;15.018;2022-08-19T10:44:22;25.30;67.80
23669;DHT22;12011;47.422;15.018;2022-08-19T10:46:57;25.20;69.50
23669;DHT22;12011;47.422;15.018;2022-08-19T10:49:28;25.20;77.10
23669;DHT22;12011;47.422;15.018;2022-08-19T10:51:58;25.30;77.40
23669;DHT22;12011;47.422;15.018;2022-08-19T10:54:41;25.50;76.50
23669;DHT22;12011;47.422;15.018;2022-08-19T10:57:23;25.70;79.70
23669;DHT22;12011;47.422;15.018;2022-08-19T10:59:55;25.10;72.30
23669;DHT22;12011;47.422;15.018;2022-08-19T11:02:29;24.90;76.40
23669;DHT22;12011;47.422;15.018;2022-08-19T11:04:59;24.90;77.00
23669;DHT22;12011;47.422;15.018;2022-08-19T11:07:28;24.60;73.90
23669;DHT22;12011;47.422;15.018;2022-08-19T11:09:58;24.60;74.20
23669;DHT22;12011;47.422;15.018;2022-08-19T11:12:29;24.70;79.10
23669;DHT22;12011;47.422;15.018;2022-08-19T11:14:59;24.80;72.90
23669;DHT22;12011;47.422;15.018;2022-08-19T11:17:31;25.30;75.70
23669;DHT22;12011;47.422;15.018;2022-08-19T11:20:02;25.60;75.40
23669;DHT22;12011;47.422;15.018;2022-08-19T11:22:33;25.50;67.10
23669;DHT22;12011;47.422;15.018;2022-08-19T11:25:03;25.10;67.90
23669;DHT22;12011;47.422;15.018;2022-08-19T11:27:33;25.30;71.80
23669;DHT22;12011;47.422;15.018;2022-08-19T11:30:04;25.30;74.70
23669;DHT22;12011;47.422;15.018;2022-08-19T11:32:37;25.30;72.60
23669;DHT22;12011;47.422;15.018;2022-08-19T11:35:08;25.40;76.00
23669;DHT22;12011;47.422;15.018;2022-08-19T11:37:38;25.70;74.10
23669;DHT22;12011;47.422;15.018;2022-08-19T11:40:09;26.20;69.60
23669;DHT22;12011;47.422;15.018;2022-08-19T11:42:39;26.40;70.80
23669;DHT22;12011;47.422;15.018;2022-08-19T11:45:25;27.70;68.80
23669;DHT22;12011;47.422;15.018;2022-08-19T11:47:58;27.60;63.40
23669;DHT22;12011;47.422;15.018;2022-08-19T11:50:28;28.60;66.60
23669;DHT22;12011;47.422;15.018;2022-08-19T11:53:08;28.30;61.80
23669;DHT22;12011;47.422;15.018;2022-08-19T11:55:39;27.20;61.70
23669;DHT22;12011;47.422;15.018;2022-08-19T11:58:15;26.50;64.00
23669;DHT22;12011;47.422;15.018;2022-08-19T12:00:47;26.10;69.80
23669;DHT22;12011;47.422;15.018;2022-08-19T12:03:24;25.80;69.50
23669;DHT22;12011;47.422;15.018;2022-08-19T12:05:57;25.50;65.10
23669;DHT22;12011;47.422;15.018;2022-08-19T12:08:27;25.90;67.20
23669;DHT22;12011;47.422;15.018;2022-08-19T12:10:57;26.60;68.40
23669;DHT22;12011;47.422;15.018;2022-08-19T12:13:27;27.20;68.20
23669;DHT22;12011;47.422;15.018;2022-08-19T12:15:57;27.70;63.40
23669;DHT22;12011;47.422;15.018;2022-08-19T12:18:30;28.40;62.20
23669;DHT22;12011;47.422;15.018;2022-08-19T12:21:00;28.50;62.80
23669;DHT22;12011;47.422;15.018;2022-08-19T12:23:30;28.90;64.50
23669;DHT22;12011;47.422;15.018;2022-08-19T12:25:59;28.90;63.00
23669;DHT22;12011;47.422;15.018;2022-08-19T12:28:30;28.60;60.90
23669;DHT22;12011;47.422;15.018;2022-08-19T12:31:00;28.80;60.30
23669;DHT22;12011;47.422;15.018;2022-08-19T12:33:32;28.50;56.80
23669;DHT22;12011;47.422;15.018;2022-08-19T12:36:04;28.70;60.90
23669;DHT22;12011;47.422;15.018;2022-08-19T12:38:36;28.60;56.50
23669;DHT22;12011;47.422;15.018;2022-08-19T12:41:11;28.90;60.10
23669;DHT22;12011;47.422;15.018;2022-08-19T12:43:45;29.10;58.60
23669;DHT22;12011;47.422;15.018;2022-08-19T12:46:15;29.50;58.40
23669;DHT22;12011;47.422;15.018;2022-08-19T12:48:54;29.90;53.90
23669;DHT22;12011;47.422;15.018;2022-08-19T12:51:26;29.60;56.30
23669;DHT22;12011;47.422;15.018;2022-08-19T12:54:04;29.60;58.50
23669;DHT22;12011;47.422;15.018;2022-08-19T12:56:39;29.40;57.90
23669;DHT22;12011;47.422;15.018;2022-08-19T12:59:16;29.20;55.50
23669;DHT22;12011;47.422;15.018;2022-08-19T13:01:47;29.20;51.30
23669;DHT22;12011;47.422;15.018;2022-08-19T13:04:19;29.40;50.00
23669;DHT22;12011;47.422;15.018;2022-08-19T13:06:49;28.30;54.80
23669;DHT22;12011;47.422;15.018;2022-08-19T13:09:19;28.30;57.70
23669;DHT22;12011;47.422;15.018;2022-08-19T13:11:49;28.80;57.00
23669;DHT22;12011;47.422;15.018;2022-08-19T13:14:20;28.90;53.30
23669;DHT22;12011;47.422;15.018;2022-08-19T13:16:54;28.30;51.00
23669;DHT22;12011;47.422;15.018;2022-08-19T13:19:29;28.50;52.70
23669;DHT22;12011;47.422;15.018;2022-08-19T13:21:59;28.60;55.10
23669;DHT22;12011;47.422;15.018;2022-08-19T13:24:37;28.70;52.80
23669;DHT22;12011;47.422;15.018;2022-08-19T13:27:06;28.20;50.30
23669;DHT22;12011;47.422;15.018;2022-08-19T13:29:40;27.50;53.90
23669;DHT22;12011;47.422;15.018;2022-08-19T13:32:22;27.20;51.40
23669;DHT22;12011;47.422;15.018;2022-08-19T13:35:07;27.10;56.70
23669;DHT22;12011;47.422;15.018;2022-08-19T13:37:38;26.90;55.50
23669;DHT22;12011;47.422;15.018;2022-08-19T13:40:14;27.00;54.60
23669;DHT22;12011;47.422;15.018;2022-08-19T13:42:52;27.50;53.50
23669;DHT22;12011;47.422;15.018;2022-08-19T13:45:27;27.20;52.70
23669;DHT22;12011;47.422;15.018;2022-08-19T13:48:01;26.90;54.70
23669;DHT22;12011;47.422;15.018;2022-08-19T13:50:44;27.00;56.70
23669;DHT22;12011;47.422;15.018;2022-08-19T13:53:19;27.10;54.20
23669;DHT22;12011;47.422;15.018;2022-08-19T13:55:56;27.40;53.20
23669;DHT22;12011;47.422;15.018;2022-08-19T13:58:26;28.10;52.60
23669;DHT22;12011;47.422;15.018;2022-08-19T14:00:57;28.10;50.40
23669;DHT22;12011;47.422;15.018;2022-08-19T14:03:29;27.70;55.30
23669;DHT22;12011;47.422;15.018;2022-08-19T14:06:03;27.60;56.40
23669;DHT22;12011;47.422;15.018;2022-08-19T14:08:39;27.70;55.20
23669;DHT22;12011;47.422;15.018;2022-08-19T14:11:10;27.60;53.40
23669;DHT22;12011;47.422;15.018;2022-08-19T14:13:43;27.50;49.80
23669;DHT22;12011;47.422;15.018;2022-08-19T14:16:13;28.10;53.10
23669;DHT22;12011;47.422;15.018;2022-08-19T14:18:45;28.40;50.20
23669;DHT22;12011;47.422;15.018;2022-08-19T14:21:21;28.80;53.20
23669;DHT22;12011;47.422;15.018;2022-08-19T14:23:52;28.50;50.00
23669;DHT22;12011;47.422;15.018;2022-08-19T14:26:24;28.00;49.60
23669;DHT22;12011;47.422;15.018;2022-08-19T14:28:55;28.10;55.60
23669;DHT22;12011;47.422;15.018;2022-08-19T14:31:25;28.30;48.40
23669;DHT22;12011;47.422;15.018;2022-08-19T14:33:56;27.90;50.10
23669;DHT22;12011;47.422;15.018;2022-08-19T14:36:28;27.90;51.90
23669;DHT22;12011;47.422;15.018;2022-08-19T14:39:00;28.20;51.90
23669;DHT22;12011;47.422;15.018;2022-08-19T14:41:31;27.80;51.80
23669;DHT22;12011;47.422;15.018;2022-08-19T14:44:02;27.80;50.60
23669;DHT22;12011;47.422;15.018;2022-08-19T14:46:32;28.10;50.70
23669;DHT22;12011;47.422;15.018;2022-08-19T14:49:01;28.00;51.30
23669;DHT22;12011;47.422;15.018;2022-08-19T14:51:47;27.70;49.60
23669;DHT22;12011;47.422;15.018;2022-08-19T14:54:17;27.50;52.60
23669;DHT22;12011;47.422;15.018;2022-08-19T14:56:47;27.10;49.30
23669;DHT22;12011;47.422;15.018;2022-08-19T14:59:17;27.10;51.90
23669;DHT22;12011;47.422;15.018;2022-08-19T15:01:50;27.10;50.30
23669;DHT22;12011;47.422;15.018;2022-08-19T15:04:22;27.20;54.80
23669;DHT22;12011;47.422;15.018;2022-08-19T15:07:02;26.90;57.00
23669;DHT22;12011;47.422;15.018;2022-08-19T15:09:35;26.60;52.60
23669;DHT22;12011;47.422;15.018;2022-08-19T15:12:08;26.70;55.70
23669;DHT22;12011;47.422;15.018;2022-08-19T15:14:40;26.70;57.70
23669;DHT22;12011;47.422;15.018;2022-08-19T15:17:20;26.50;61.50
23669;DHT22;12011;47.422;15.018;2022-08-19T15:19:58;26.40;56.50
23669;DHT22;12011;47.422;15.018;2022-08-19T15:22:33;26.20;58.30
23669;DHT22;12011;47.422;15.018;2022-08-19T15:25:10;26.00;62.40
23669;DHT22;12011;47.422;15.018;2022-08-19T15:27:42;26.00;58.00
23669;DHT22;12011;47.422;15.018;2022-08-19T15:30:22;26.10;54.80
23669;DHT22;12011;47.422;15.018;2022-08-19T15:32:58;26.10;55.30
23669;DHT22;12011;47.422;15.018;2022-08-19T15:35:35;26.30;58.00
23669;DHT22;12011;47.422;15.018;2022-08-19T15:38:10;26.40;54.90
23669;DHT22;12011;47.422;15.018;2022-08-19T15:41:02;26.20;54.50
23669;DHT22;12011;47.422;15.018;2022-08-19T15:43:57;26.00;58.40
23669;DHT22;12011;47.422;15.018;2022-08-19T15:46:34;25.90;56.90